Time;durP1;ratioP1;P1;durP2;ratioP2;P2;SDS_P1;SDS_P2;PMS_P1;PMS_P2;Temp;Humidity;BMP_temperature;BMP_pressure;BME280_temperature;BME280_humidity;BME280_pressure;Samples;Min_cycle;Max_cycle;Signal;HPM_P1;HPM_P2
2023/04/16 00:02:07;;;;;;;8.85;7.05;;;8.30;99.90;;;7.37;100.00;97779.16;5034932;28;20053;-69
2023/04/16 00:04:34;;;;;;;9.10;6.35;;;8.30;99.90;;;7.46;100.00;97777.22;5039680;28;20053;-69
2023/04/16 00:07:01;;;;;;;7.95;6.63;;;8.30;99.90;;;7.45;100.00;97783.25;5040721;28;20098;-69
2023/04/16 00:09:28;;;;;;;7.88;6.65;;;8.30;99.90;;;7.51;100.00;97777.09;5039851;28;20091;-69
2023/04/16 00:11:55;;;;;;;7.78;6.03;;;8.40;99.90;;;7.57;100.00;97784.66;5040744;28;20059;-69
2023/04/16 00:14:22;;;;;;;7.55;5.78;;;8.40;99.90;;;7.58;100.00;97782.94;5024888;28;20140;-68
2023/04/16 00:16:49;;;;;;;7.80;6.07;;;8.40;99.90;;;7.57;100.00;97768.31;5037394;28;20076;-69
2023/04/16 00:19:16;;;;;;;8.13;6.05;;;8.40;99.90;;;7.62;100.00;97776.78;5040641;28;20045;-68
2023/04/16 00:21:44;;;;;;;6.90;5.97;;;8.40;99.90;;;7.65;100.00;97777.56;5041717;28;20548;-69
2023/04/16 00:24:11;;;;;;;6.45;5.68;;;8.40;99.90;;;7.51;100.00;97774.50;5039027;28;20064;-68
2023/04/16 00:26:39;;;;;;;6.90;5.75;;;8.40;99.90;;;7.60;100.00;97784.59;5024506;28;20133;-69
2023/04/16 00:29:06;;;;;;;7.75;6.68;;;8.50;99.90;;;7.53;100.00;97780.47;5036956;28;20053;-70
2023/04/16 00:31:35;;;;;;;8.70;6.55;;;8.40;99.90;;;7.47;100.00;97780.63;5037112;28;20048;-69
2023/04/16 00:34:02;;;;;;;8.05;6.10;;;8.50;99.90;;;7.44;100.00;97779.00;5038845;28;20053;-68
2023/04/16 00:36:29;;;;;;;7.38;5.72;;;8.40;99.90;;;7.42;100.00;97778.19;5037139;28;20573;-68
2023/04/16 00:38:56;;;;;;;7.38;5.60;;;8.30;99.90;;;7.49;100.00;97779.69;5039824;28;20069;-69
2023/04/16 00:41:23;;;;;;;8.80;6.13;;;8.40;99.90;;;7.46;100.00;97779.81;5035865;28;20055;-69
2023/04/16 00:43:50;;;;;;;8.35;5.82;;;8.30;99.90;;;7.50;100.00;97786.59;5035171;28;20640;-69
2023/04/16 00:46:24;;;;;;;8.02;5.85;;;8.40;99.90;;;7.57;100.00;97782.06;5038040;28;20166;-67
2023/04/16 00:48:53;;;;;;;7.82;6.25;;;8.40;99.90;;;7.46;100.00;97779.81;5036722;28;20089;-68
2023/04/16 00:51:23;;;;;;;7.05;5.53;;;8.40;99.90;;;7.43;100.00;97772.13;5033982;28;20049;-67
2023/04/16 00:53:50;;;;;;;6.75;5.65;;;8.40;99.90;;;7.48;100.00;97779.72;5039480;28;20049;-69
2023/04/16 00:56:18;;;;;;;7.97;6.18;;;8.40;99.90;;;7.40;100.00;97777.38;5040663;28;20057;-69
2023/04/16 00:58:44;;;;;;;9.48;6.25;;;8.30;99.90;;;7.48;100.00;97775.44;5039715;28;20037;-69
2023/04/16 01:01:13;;;;;;;6.65;5.25;;;8.40;99.90;;;7.40;100.00;97777.38;5036287;28;20486;-69
2023/04/16 01:03:45;;;;;;;8.18;6.40;;;8.40;99.90;;;7.44;100.00;97778.16;5043461;28;20098;-69
2023/04/16 01:06:13;;;;;;;7.78;5.85;;;8.40;99.90;;;7.41;100.00;97768.75;5052509;28;20054;-69
2023/04/16 01:08:43;;;;;;;7.72;5.93;;;8.40;99.90;;;7.42;100.00;97772.19;5041136;28;20536;-69
2023/04/16 01:11:11;;;;;;;7.07;5.43;;;8.40;99.90;;;7.41;100.00;97779.09;5040913;28;20045;-69
2023/04/16 01:13:38;;;;;;;7.35;5.47;;;8.30;99.90;;;7.36;100.00;97783.50;5041625;28;20167;-69
2023/04/16 01:16:10;;;;;;;7.25;6.07;;;8.30;99.90;;;7.35;100.00;97786.97;5037648;28;20080;-69
2023/04/16 01:18:38;;;;;;;6.78;5.45;;;8.30;99.90;;;7.26;100.00;97782.91;5038877;28;20049;-68
2023/04/16 01:21:05;;;;;;;8.13;5.93;;;8.30;99.90;;;7.36;100.00;97783.50;5018032;28;20457;-69
2023/04/16 01:23:33;;;;;;;9.13;5.50;;;8.30;99.90;;;7.33;100.00;97776.69;5037556;28;20072;-68
2023/04/16 01:25:59;;;;;;;7.45;5.53;;;8.20;99.90;;;7.30;100.00;97781.09;5038712;28;20045;-70
2023/04/16 01:28:26;;;;;;;8.13;6.18;;;8.20;99.90;;;7.28;100.00;97788.88;5039116;28;20051;-70
2023/04/16 01:30:53;;;;;;;8.05;6.00;;;8.20;99.90;;;7.34;100.00;97785.28;5040056;28;20096;-68
2023/04/16 01:33:21;;;;;;;8.70;6.13;;;8.30;99.90;;;7.28;100.00;97786.28;5039396;28;20044;-70
2023/04/16 01:35:48;;;;;;;6.93;5.80;;;8.20;99.90;;;7.35;100.00;97789.56;5036959;28;20060;-70
2023/04/16 01:38:15;;;;;;;8.25;5.35;;;8.30;99.90;;;7.32;100.00;97798.25;5037908;28;20402;-70
2023/04/16 01:40:42;;;;;;;7.82;5.75;;;8.30;99.90;;;7.25;100.00;97801.88;5040129;28;20052;-68
2023/04/16 01:43:09;;;;;;;8.25;5.88;;;8.20;99.90;;;7.31;100.00;97803.44;5040882;28;20056;-69
2023/04/16 01:45:36;;;;;;;7.28;5.32;;;8.20;99.90;;;7.31;100.00;97796.53;5040603;28;20041;-68
2023/04/16 01:48:03;;;;;;;7.97;5.85;;;8.30;99.90;;;7.30;100.00;97804.34;5039262;28;20052;-69
2023/04/16 01:50:34;;;;;;;8.32;5.85;;;8.30;99.90;;;7.26;100.00;97803.56;5035990;28;20049;-70
2023/04/16 01:53:03;;;;;;;9.27;6.53;;;8.20;99.90;;;7.23;100.00;97803.66;5036661;28;20045;-68
2023/04/16 01:55:32;;;;;;;9.25;7.05;;;8.30;99.90;;;7.19;100.00;97803.75;5029773;28;20048;-69
2023/04/16 01:57:59;;;;;;;11.48;8.68;;;8.20;99.90;;;7.17;100.00;97797.78;5041130;28;20132;-69
2023/04/16 02:00:26;;;;;;;11.00;8.23;;;8.20;99.90;;;7.11;100.00;97809.09;5037193;28;20443;-67
2023/04/16 02:02:54;;;;;;;13.85;9.45;;;8.10;99.90;;;7.13;100.00;97807.31;5054107;28;20096;-69
2023/04/16 02:05:21;;;;;;;10.40;8.13;;;8.10;99.90;;;7.09;100.00;97808.28;5039303;28;20044;-68
2023/04/16 02:07:48;;;;;;;11.55;8.63;;;8.10;99.90;;;7.18;100.00;97813.22;5041183;28;20044;-69
2023/04/16 02:10:15;;;;;;;13.25;9.30;;;8.10;99.90;;;7.18;100.00;97814.97;5036818;28;20500;-69
2023/04/16 02:12:42;;;;;;;13.40;9.05;;;8.10;99.90;;;7.11;100.00;97809.94;5036957;28;20056;-70
2023/04/16 02:15:10;;;;;;;10.90;8.63;;;8.00;99.90;;;7.12;100.00;97811.66;5037698;28;20418;-69
2023/04/16 02:17:37;;;;;;;11.05;8.98;;;8.10;99.90;;;7.06;100.00;97818.69;5037490;28;20106;-69
2023/04/16 02:20:07;;;;;;;12.90;9.07;;;8.10;99.90;;;7.12;100.00;97819.41;5039278;28;20076;-68
2023/04/16 02:22:34;;;;;;;11.85;9.13;;;8.10;99.90;;;7.23;100.00;97823.44;5040191;28;20521;-68
2023/04/16 02:25:01;;;;;;;11.40;8.18;;;8.10;99.90;;;7.17;100.00;97821.88;5034945;28;20123;-69
2023/04/16 02:27:28;;;;;;;12.65;9.60;;;8.10;99.90;;;7.16;100.00;97814.16;5038239;28;20057;-69
2023/04/16 02:29:55;;;;;;;13.23;9.80;;;8.10;99.90;;;7.17;100.00;97823.59;5039418;28;20049;-69
2023/04/16 02:32:22;;;;;;;11.32;9.00;;;8.10;99.90;;;7.18;100.00;97822.69;5039128;28;20648;-69
2023/04/16 02:34:49;;;;;;;10.88;8.27;;;8.10;99.90;;;7.14;100.00;97821.94;5039379;28;20053;-69
2023/04/16 02:37:16;;;;;;;12.15;9.30;;;8.10;99.90;;;7.12;100.00;97826.31;5038580;28;20110;-69
2023/04/16 02:39:43;;;;;;;12.45;9.05;;;8.00;99.90;;;7.18;100.00;97820.97;5041739;28;20057;-69
2023/04/16 02:42:10;;;;;;;11.75;9.48;;;8.00;99.90;;;7.21;100.00;97822.66;5039460;28;20049;-67
2023/04/16 02:44:38;;;;;;;12.35;9.23;;;8.00;99.90;;;7.17;100.00;97823.59;5038047;28;20056;-70
2023/04/16 02:47:04;;;;;;;12.35;9.40;;;8.10;99.90;;;7.10;100.00;97828.06;5038305;28;20079;-70
2023/04/16 02:49:32;;;;;;;13.13;9.98;;;8.10;99.90;;;7.07;100.00;97822.97;5036044;28;20041;-69
2023/04/16 02:51:59;;;;;;;13.25;9.75;;;8.00;99.90;;;7.07;100.00;97826.41;5039262;28;20049;-69
2023/04/16 02:54:26;;;;;;;12.85;9.88;;;8.10;99.90;;;7.02;100.00;97824.81;5037443;28;20052;-70
2023/04/16 02:56:53;;;;;;;12.05;9.68;;;8.00;99.90;;;7.10;100.00;97820.31;5037978;28;20393;-69
2023/04/16 02:59:20;;;;;;;13.20;10.32;;;8.00;99.90;;;7.07;100.00;97820.38;5037550;28;20524;-70
2023/04/16 03:01:47;;;;;;;14.35;9.73;;;8.00;99.90;;;7.07;100.00;97812.63;5041429;28;20047;-70
2023/04/16 03:04:14;;;;;;;11.98;9.27;;;8.00;99.90;;;7.15;100.00;97815.88;5017531;28;20129;-69
2023/04/16 03:06:41;;;;;;;13.93;10.25;;;8.00;99.90;;;7.22;100.00;97821.75;5041212;28;20146;-70
2023/04/16 03:09:08;;;;;;;14.15;10.10;;;8.00;99.90;;;7.11;100.00;97815.09;5039958;28;20053;-70
2023/04/16 03:11:36;;;;;;;12.57;9.93;;;8.10;99.90;;;7.19;100.00;97820.09;5036657;28;20069;-69
2023/04/16 03:14:03;;;;;;;12.40;8.98;;;8.10;99.90;;;7.12;100.00;97810.81;5035857;28;20060;-69
2023/04/16 03:16:31;;;;;;;14.02;9.75;;;8.00;99.90;;;7.24;100.00;97813.06;5032592;28;20052;-68
2023/04/16 03:18:57;;;;;;;12.82;9.65;;;8.00;99.90;;;7.12;100.00;97823.72;5042287;28;20073;-70
2023/04/16 03:21:26;;;;;;;14.45;10.80;;;8.00;99.90;;;7.15;100.00;97821.03;5038548;28;20053;-69
2023/04/16 03:23:54;;;;;;;11.32;9.30;;;8.00;99.90;;;7.12;100.00;97819.41;5036531;28;20434;-68
2023/04/16 03:26:21;;;;;;;12.10;9.05;;;8.10;99.90;;;7.14;100.00;97814.22;5034516;28;20160;-69
2023/04/16 03:28:48;;;;;;;14.27;9.60;;;8.10;99.90;;;7.15;100.00;97821.03;5036958;28;20041;-68
2023/04/16 03:31:15;;;;;;;11.10;8.77;;;8.10;99.90;;;7.13;100.00;97833.13;5037259;28;20051;-69
2023/04/16 03:33:42;;;;;;;11.50;9.10;;;8.10;99.90;;;7.12;100.00;97829.72;5041404;28;20159;-70
2023/04/16 03:36:09;;;;;;;12.40;9.60;;;8.10;99.90;;;7.07;100.00;97830.69;5035669;28;20564;-69
2023/04/16 03:38:36;;;;;;;12.20;8.95;;;8.10;99.90;;;7.03;100.00;97832.53;5037266;28;20057;-69
2023/04/16 03:41:03;;;;;;;12.25;9.27;;;8.00;99.90;;;7.07;100.00;97833.28;5038986;28;20053;-70
2023/04/16 03:43:30;;;;;;;11.63;8.10;;;8.00;99.90;;;7.08;100.00;97838.41;5039505;28;20132;-69
2023/04/16 03:45:57;;;;;;;12.18;8.85;;;8.00;99.90;;;7.11;100.00;97840.91;5039252;28;20049;-69
2023/04/16 03:48:24;;;;;;;12.38;9.38;;;8.00;99.90;;;7.13;100.00;97836.56;5036187;28;20045;-69
2023/04/16 03:50:51;;;;;;;10.88;8.73;;;8.00;99.90;;;7.07;100.00;97836.75;5037098;28;20060;-69
2023/04/16 03:53:18;;;;;;;14.23;9.60;;;8.00;99.90;;;7.03;100.00;97836.84;5044520;28;20060;-69
2023/04/16 03:55:50;;;;;;;12.40;9.30;;;8.00;99.90;;;7.04;100.00;97836.78;5037174;28;20057;-69
2023/04/16 03:58:18;;;;;;;14.32;10.15;;;8.00;99.90;;;7.08;100.00;97845.31;5043262;28;20072;-70
2023/04/16 04:00:45;;;;;;;13.35;10.13;;;8.00;99.90;;;7.05;100.00;97841.09;5038872;28;20051;-70
2023/04/16 04:03:15;;;;;;;12.90;9.77;;;8.00;99.90;;;7.05;100.00;97843.66;5045723;28;20055;-69
2023/04/16 04:05:43;;;;;;;14.20;9.73;;;8.00;99.90;;;7.04;100.00;97843.69;5040776;28;20077;-68
2023/04/16 04:08:10;;;;;;;19.00;10.75;;;8.00;99.90;;;7.00;100.00;97845.53;5043401;28;20144;-70
2023/04/16 04:10:37;;;;;;;14.25;10.52;;;8.00;99.90;;;7.10;100.00;97851.28;5043147;28;20049;-70
2023/04/16 04:13:05;;;;;;;15.63;10.90;;;8.00;99.90;;;7.01;100.00;97852.34;5042575;28;20057;-70
2023/04/16 04:15:32;;;;;;;13.75;10.52;;;7.90;99.90;;;7.03;100.00;97853.19;5040045;28;20049;-68
2023/04/16 04:17:59;;;;;;;15.88;10.35;;;7.90;99.90;;;6.99;100.00;97854.13;5040849;28;20053;-70
2023/04/16 04:20:27;;;;;;;13.13;9.90;;;7.90;99.90;;;6.98;100.00;97861.91;5037876;28;20464;-69
2023/04/16 04:22:54;;;;;;;14.65;10.57;;;7.90;99.90;;;6.96;100.00;97859.38;5039447;28;20042;-69
2023/04/16 04:25:21;;;;;;;17.50;12.23;;;7.90;99.90;;;6.94;100.00;97868.88;5038864;28;20055;-69
2023/04/16 04:27:48;;;;;;;16.50;11.48;;;7.90;99.90;;;6.90;100.00;97864.66;5039084;28;20074;-69
2023/04/16 04:30:15;;;;;;;16.27;11.02;;;7.90;99.90;;;6.95;100.00;97874.88;5039134;28;20053;-70
2023/04/16 04:32:42;;;;;;;16.17;11.00;;;7.90;99.90;;;6.97;100.00;97880.84;5040385;28;20048;-70
2023/04/16 04:35:09;;;;;;;14.70;11.88;;;7.90;99.90;;;6.96;100.00;97881.75;5041050;28;20053;-69
2023/04/16 04:37:36;;;;;;;15.88;10.82;;;7.90;99.90;;;6.95;100.00;97882.63;5028621;28;20051;-69
2023/04/16 04:40:03;;;;;;;15.95;11.43;;;7.90;99.90;;;6.88;100.00;97884.50;5039064;28;20781;-69
2023/04/16 04:42:30;;;;;;;19.25;13.55;;;7.80;99.90;;;6.87;100.00;97895.72;5038858;28;20049;-69
2023/04/16 04:44:57;;;;;;;17.05;12.48;;;7.80;99.90;;;6.82;100.00;97892.38;5039875;28;20060;-71
2023/04/16 04:47:25;;;;;;;19.92;13.35;;;7.90;99.90;;;6.84;100.00;97894.06;5041113;28;20044;-69
2023/04/16 04:49:52;;;;;;;16.67;12.52;;;7.80;99.90;;;6.87;100.00;97899.13;5039322;28;20052;-70
2023/04/16 04:52:19;;;;;;;17.77;12.13;;;7.70;99.90;;;6.85;100.00;97900.91;5038221;28;20072;-69
2023/04/16 04:54:46;;;;;;;17.15;11.65;;;7.70;99.90;;;6.85;100.00;97900.06;5042396;28;20060;-70
2023/04/16 04:57:13;;;;;;;19.38;13.38;;;7.80;99.90;;;6.82;100.00;97898.41;5025431;28;20339;-70
2023/04/16 04:59:40;;;;;;;18.83;13.30;;;7.80;99.90;;;6.81;100.00;97908.75;5039845;28;20113;-70
2023/04/16 05:02:07;;;;;;;19.85;13.57;;;7.70;99.90;;;6.81;100.00;97911.31;5016147;28;20374;-69
2023/04/16 05:04:34;;;;;;;18.45;13.02;;;7.70;99.90;;;6.86;100.00;97915.47;5039573;28;20056;-70
2023/04/16 05:07:02;;;;;;;19.42;13.20;;;7.70;99.90;;;6.84;100.00;97913.81;5023379;28;20057;-70
2023/04/16 05:09:29;;;;;;;19.65;13.00;;;7.80;99.90;;;6.89;100.00;97915.44;5037905;28;20111;-69
2023/04/16 05:11:56;;;;;;;21.75;13.63;;;7.80;99.90;;;6.83;100.00;97917.31;5038270;28;20497;-69
2023/04/16 05:14:23;;;;;;;18.20;13.35;;;7.80;99.90;;;6.83;100.00;97918.16;5038856;28;20185;-70
2023/04/16 05:16:50;;;;;;;20.77;13.13;;;7.80;99.90;;;6.88;100.00;97920.63;5040132;28;20122;-69
2023/04/16 05:19:17;;;;;;;17.58;12.35;;;7.70;99.90;;;6.82;100.00;97925.91;5042031;28;20049;-70
2023/04/16 05:21:44;;;;;;;21.05;12.57;;;7.70;99.90;;;6.90;100.00;97931.75;5035426;28;20049;-70
2023/04/16 05:24:11;;;;;;;22.63;13.15;;;7.80;99.90;;;6.94;100.00;97927.41;5039453;28;20044;-69
2023/04/16 05:26:40;;;;;;;19.85;13.57;;;7.80;99.90;;;6.84;100.00;97927.59;5040659;28;20125;-70
2023/04/16 05:29:07;;;;;;;22.05;14.38;;;7.80;99.90;;;6.88;100.00;97934.38;5041797;28;20484;-70
2023/04/16 05:31:35;;;;;;;18.92;12.50;;;7.90;99.90;;;6.98;100.00;97934.16;5038218;28;20052;-70
2023/04/16 05:34:02;;;;;;;20.98;13.77;;;7.80;99.90;;;7.11;100.00;97928.69;5039356;28;20061;-69
2023/04/16 05:36:29;;;;;;;19.30;12.57;;;7.90;99.90;;;7.00;100.00;97932.41;5036003;28;20059;-70
2023/04/16 05:38:56;;;;;;;20.65;13.48;;;7.90;99.90;;;6.98;100.00;97935.03;5037547;28;20053;-70
2023/04/16 05:41:23;;;;;;;18.63;12.52;;;7.90;99.90;;;6.99;100.00;97933.28;5032536;28;20077;-70
2023/04/16 05:43:50;;;;;;;19.70;12.88;;;7.90;99.90;;;7.16;100.00;97935.47;5039760;28;20509;-69
2023/04/16 05:46:17;;;;;;;19.95;12.38;;;7.90;99.90;;;7.18;100.00;97937.13;5040201;28;20212;-70
2023/04/16 05:48:44;;;;;;;19.88;13.10;;;8.00;99.90;;;7.07;100.00;97942.56;5040123;28;20144;-70
2023/04/16 05:51:12;;;;;;;19.27;12.45;;;8.00;99.90;;;7.05;100.00;97941.75;5036462;28;20540;-68
2023/04/16 05:53:39;;;;;;;17.25;11.63;;;8.00;99.90;;;7.30;100.00;97954.09;5025150;28;20059;-69
2023/04/16 05:56:07;;;;;;;19.67;12.38;;;8.00;99.90;;;7.13;100.00;97950.16;5042663;28;20076;-70
2023/04/16 05:58:34;;;;;;;18.13;11.60;;;8.00;99.90;;;7.22;100.00;97948.25;5037812;28;20574;-69
2023/04/16 06:01:06;;;;;;;17.27;11.65;;;8.10;99.90;;;7.21;100.00;97947.41;5036814;28;20413;-69
2023/04/16 06:03:33;;;;;;;19.38;11.90;;;8.10;99.90;;;7.23;100.00;97947.34;5038993;28;20050;-69
2023/04/16 06:06:00;;;;;;;16.27;12.20;;;8.10;99.90;;;7.28;100.00;97941.22;5023185;28;20425;-69
2023/04/16 06:08:27;;;;;;;19.40;13.05;;;8.10;99.90;;;7.07;100.00;97941.69;5040972;28;20501;-69
2023/04/16 06:10:55;;;;;;;17.45;12.05;;;8.10;99.90;;;7.03;100.00;97947.84;5035616;28;20103;-69
2023/04/16 06:13:22;;;;;;;18.15;12.18;;;8.10;99.90;;;7.06;100.00;97948.59;5032615;28;20053;-69
2023/04/16 06:15:52;;;;;;;17.58;12.30;;;8.10;99.90;;;7.16;100.00;97943.22;5037138;28;20056;-69
2023/04/16 06:18:19;;;;;;;20.08;12.20;;;8.00;99.90;;;7.14;100.00;97948.44;5038093;28;20077;-69
2023/04/16 06:20:47;;;;;;;18.92;13.48;;;8.00;99.90;;;7.24;100.00;97947.31;5039108;28;21656;-69
2023/04/16 06:23:14;;;;;;;20.02;13.40;;;8.00;99.90;;;7.17;100.00;97948.34;5034363;28;20393;-69
2023/04/16 06:25:41;;;;;;;18.00;12.30;;;8.10;99.90;;;7.12;100.00;97945.03;5038707;28;20131;-68
2023/04/16 06:28:08;;;;;;;15.00;11.30;;;8.10;99.90;;;7.43;100.00;97944.31;5038810;28;20045;-69
2023/04/16 06:30:35;;;;;;;18.13;12.05;;;8.20;99.90;;;7.36;100.00;97948.78;5038807;28;20140;-69
2023/04/16 06:33:03;;;;;;;18.00;12.63;;;8.20;99.90;;;7.42;100.00;97951.22;5036745;28;20049;-69
2023/04/16 06:35:30;;;;;;;15.57;11.85;;;8.20;99.90;;;7.48;100.00;97951.06;5038833;28;20080;-69
2023/04/16 06:37:56;;;;;;;16.45;11.60;;;8.20;99.90;;;7.69;100.00;97948.84;5037042;28;20055;-69
2023/04/16 06:40:24;;;;;;;16.83;11.70;;;8.30;99.90;;;7.59;100.00;97953.38;5040279;28;20063;-70
2023/04/16 06:42:50;;;;;;;17.00;12.55;;;8.40;99.90;;;7.36;100.00;97958.25;5034203;28;20482;-70
2023/04/16 06:45:17;;;;;;;19.75;13.23;;;8.40;99.90;;;7.26;100.00;97965.38;5036688;28;20049;-68
2023/04/16 06:47:45;;;;;;;18.33;12.88;;;8.20;99.90;;;7.37;100.00;97957.34;5037573;28;20053;-69
2023/04/16 06:50:12;;;;;;;18.50;11.98;;;8.30;99.90;;;7.39;100.00;97968.50;5038880;28;20088;-69
2023/04/16 06:52:39;;;;;;;19.75;13.55;;;8.20;99.90;;;7.33;100.00;97972.09;5038676;28;20057;-69
2023/04/16 06:55:08;;;;;;;20.10;13.93;;;8.20;99.90;;;7.31;100.00;97974.69;5038461;28;20057;-70
2023/04/16 06:57:35;;;;;;;19.25;12.73;;;8.20;99.90;;;7.20;100.00;97978.41;5034366;28;20053;-69
2023/04/16 07:00:04;;;;;;;22.40;14.20;;;8.10;99.90;;;7.15;100.00;97980.25;5040874;28;20139;-69
2023/04/16 07:02:32;;;;;;;20.20;14.00;;;8.10;99.90;;;7.15;100.00;97982.84;5038526;28;20073;-69
2023/04/16 07:04:59;;;;;;;19.60;12.68;;;8.10;99.90;;;7.09;100.00;97989.84;5041525;28;20106;-69
2023/04/16 07:07:26;;;;;;;18.27;13.88;;;8.10;99.90;;;7.09;100.00;97995.00;5036814;28;20056;-69
2023/04/16 07:09:53;;;;;;;19.05;13.13;;;8.10;99.90;;;7.15;100.00;97990.59;5036888;28;20045;-69
2023/04/16 07:12:20;;;;;;;18.10;12.30;;;8.10;99.90;;;7.04;100.00;97990.81;5040610;28;20125;-70
2023/04/16 07:14:48;;;;;;;16.67;11.68;;;8.10;99.90;;;7.17;100.00;97991.41;5023446;28;20133;-68
2023/04/16 07:17:18;;;;;;;17.27;12.10;;;8.00;99.90;;;7.13;100.00;97988.88;5035124;28;20042;-69
2023/04/16 07:19:45;;;;;;;18.17;12.23;;;8.00;99.90;;;7.18;100.00;97990.50;5036154;28;20056;-70
2023/04/16 07:22:12;;;;;;;18.05;11.88;;;8.10;99.90;;;7.17;100.00;97992.25;5034573;28;20045;-68
2023/04/16 07:24:39;;;;;;;18.30;12.10;;;8.10;99.90;;;7.13;100.00;97994.03;5037752;28;20048;-70
2023/04/16 07:27:06;;;;;;;15.20;11.38;;;8.10;99.90;;;7.28;100.00;97987.69;5045759;28;20055;-70
2023/04/16 07:29:33;;;;;;;16.63;11.50;;;8.10;99.90;;;7.26;100.00;97993.78;5037646;28;20073;-69
2023/04/16 07:32:00;;;;;;;15.35;10.93;;;8.10;99.90;;;7.12;100.00;97994.94;5045148;28;20049;-69
2023/04/16 07:34:27;;;;;;;17.02;11.15;;;8.10;99.90;;;7.16;100.00;97992.28;5042456;28;20072;-70
2023/04/16 07:36:57;;;;;;;15.60;10.90;;;8.10;99.90;;;7.28;100.00;97994.59;5041805;28;20049;-70
2023/04/16 07:39:24;;;;;;;18.00;11.02;;;8.10;99.90;;;7.22;100.00;97986.97;5026625;28;20060;-70
2023/04/16 07:41:51;;;;;;;17.73;11.38;;;8.10;99.90;;;7.28;100.00;97994.59;5039067;28;20044;-68
2023/04/16 07:44:18;;;;;;;15.70;11.05;;;8.10;99.90;;;7.25;100.00;97995.53;5041237;28;20056;-68
2023/04/16 07:46:45;;;;;;;15.65;11.05;;;8.10;99.90;;;7.27;100.00;97988.56;5043595;28;20147;-69
2023/04/16 07:49:14;;;;;;;16.48;11.35;;;8.10;99.90;;;7.35;100.00;97990.97;5041448;28;20176;-70
2023/04/16 07:51:41;;;;;;;15.73;10.63;;;8.20;99.90;;;7.36;100.00;97990.09;5039985;28;20110;-68
2023/04/16 07:54:09;;;;;;;16.05;10.50;;;8.20;99.90;;;7.43;100.00;98001.13;5043655;28;20393;-69
2023/04/16 07:56:36;;;;;;;12.80;9.52;;;8.20;99.90;;;7.46;100.00;97996.75;5042746;28;20053;-69
2023/04/16 07:59:03;;;;;;;14.52;10.18;;;8.30;99.90;;;7.64;100.00;97998.06;5043590;28;20489;-70
2023/04/16 08:01:47;;;;;;;16.50;10.77;;;8.30;99.90;;;7.50;100.00;97993.22;5036904;28;20041;-68
2023/04/16 08:04:16;;;;;;;15.38;10.15;;;8.40;99.90;;;7.48;100.00;97995.00;5038867;28;20054;-69
2023/04/16 08:06:43;;;;;;;15.68;10.05;;;8.40;99.90;;;7.57;100.00;97993.91;5040859;28;20052;-69
2023/04/16 08:09:11;;;;;;;16.88;9.63;;;8.40;99.90;;;7.61;100.00;97998.09;5039319;28;20733;-70
2023/04/16 08:11:38;;;;;;;15.57;10.15;;;8.40;99.90;;;7.52;100.00;97999.16;5045757;28;20053;-68
2023/04/16 08:14:05;;;;;;;16.50;10.27;;;8.40;99.90;;;7.44;100.00;98001.09;5042504;28;20103;-70
2023/04/16 08:16:32;;;;;;;17.55;10.60;;;8.30;99.90;;;7.55;100.00;98013.78;5036289;28;20052;-69
2023/04/16 08:18:59;;;;;;;16.45;9.93;;;8.40;99.90;;;7.72;100.00;98008.19;5041488;28;20049;-69
2023/04/16 08:21:28;;;;;;;14.10;9.05;;;8.50;99.90;;;7.80;100.00;98006.28;5046609;28;20143;-69
2023/04/16 08:23:55;;;;;;;14.35;9.60;;;8.50;99.90;;;7.75;100.00;98008.09;5024912;28;20137;-70
2023/04/16 08:26:22;;;;;;;14.73;9.55;;;8.60;99.90;;;7.88;100.00;98000.91;5036468;28;20370;-69
2023/04/16 08:28:49;;;;;;;13.07;8.85;;;8.60;99.90;;;7.85;100.00;98008.75;5037426;28;20067;-69
2023/04/16 08:31:16;;;;;;;15.30;10.10;;;8.60;99.90;;;7.74;100.00;98009.00;5044889;28;20056;-68
2023/04/16 08:33:45;;;;;;;14.27;9.48;;;8.60;99.90;;;7.80;100.00;98016.63;5039170;28;20567;-69
2023/04/16 08:36:12;;;;;;;15.45;8.75;;;8.60;99.90;;;7.90;100.00;98009.47;5045666;28;20052;-69
2023/04/16 08:38:38;;;;;;;12.60;8.73;;;8.70;99.90;;;7.99;100.00;98006.66;5038715;28;20053;-69
2023/04/16 08:41:11;;;;;;;15.43;9.73;;;8.80;99.90;;;8.01;100.00;97999.72;5042706;28;20057;-70
2023/04/16 08:43:43;;;;;;;14.20;8.98;;;8.80;99.90;;;8.06;100.00;97997.88;5042971;28;20047;-69
2023/04/16 08:46:11;;;;;;;12.95;8.55;;;8.90;99.90;;;7.95;100.00;97994.69;5041172;28;20060;-69
2023/04/16 08:48:42;;;;;;;13.85;9.45;;;8.90;99.90;;;8.00;100.00;97998.00;5043066;28;20139;-70
2023/04/16 08:51:10;;;;;;;14.00;8.85;;;8.80;99.90;;;8.25;100.00;97995.63;5041389;28;20140;-68
2023/04/16 08:54:09;;;;;;;12.55;8.48;;;8.90;99.90;;;8.31;100.00;97990.31;5042764;28;20048;-70
2023/04/16 08:56:39;;;;;;;11.10;8.05;;;9.10;99.90;;;8.37;100.00;97991.91;5037450;28;20041;-70
2023/04/16 08:59:09;;;;;;;13.25;9.43;;;9.20;99.90;;;8.52;100.00;97995.81;5035561;28;20045;-68
2023/04/16 09:01:40;;;;;;;12.93;8.38;;;9.10;99.90;;;8.33;100.00;97990.28;5035825;28;20055;-69
2023/04/16 09:04:08;;;;;;;12.23;8.35;;;9.10;99.90;;;8.15;100.00;97992.44;5043906;28;20049;-68
2023/04/16 09:06:36;;;;;;;13.05;8.40;;;9.20;99.90;;;8.16;100.00;97994.16;5034853;28;20048;-69
2023/04/16 09:09:04;;;;;;;12.45;8.57;;;9.10;99.90;;;8.10;100.00;97996.91;5038242;28;20492;-70
2023/04/16 09:11:32;;;;;;;12.95;8.55;;;9.10;99.90;;;8.01;100.00;98006.63;5019342;28;20045;-70
2023/04/16 09:14:00;;;;;;;13.25;8.73;;;9.00;99.90;;;8.11;100.00;98005.50;5036318;28;20044;-69
2023/04/16 09:16:32;;;;;;;11.93;8.35;;;9.00;99.90;;;8.20;100.00;98007.84;5022194;28;20047;-69
2023/04/16 09:19:00;;;;;;;13.38;8.30;;;8.90;99.90;;;8.23;100.00;98006.91;5038742;28;20049;-69
2023/04/16 09:21:27;;;;;;;13.35;8.43;;;9.00;99.90;;;8.25;100.00;98011.16;5023058;28;20497;-70
2023/04/16 09:23:54;;;;;;;13.10;8.30;;;9.10;99.90;;;8.28;100.00;98011.09;5035623;28;20049;-69
2023/04/16 09:26:22;;;;;;;13.98;8.20;;;9.10;99.90;;;8.48;100.00;98000.22;5035728;28;20045;-69
2023/04/16 09:28:52;;;;;;;13.93;9.07;;;9.20;99.90;;;8.43;100.00;98011.59;5035797;28;20125;-68
2023/04/16 09:31:20;;;;;;;13.15;8.27;;;9.30;99.90;;;8.42;100.00;98015.91;5038295;28;20045;-69
2023/04/16 09:34:06;;;;;;;43.03;32.42;;;9.30;99.90;;;8.37;100.00;98017.75;5038324;28;20041;-69
2023/04/16 09:36:34;;;;;;;11.70;7.90;;;9.30;99.90;;;8.49;100.00;98016.59;5038231;28;20603;-70
2023/04/16 09:39:03;;;;;;;13.98;9.68;;;9.30;99.90;;;8.14;100.00;98026.09;5036186;28;20047;-68
2023/04/16 09:41:38;;;;;;;19.00;15.30;;;9.10;99.90;;;8.12;100.00;98028.75;5039269;28;20081;-70
2023/04/16 09:44:05;;;;;;;18.58;13.63;;;9.10;99.90;;;8.15;100.00;98039.00;5037248;28;20839;-70
2023/04/16 09:46:42;;;;;;;14.13;8.77;;;9.20;99.90;;;8.11;100.00;98039.09;5010668;28;20362;-69
2023/04/16 09:49:17;;;;;;;13.10;9.43;;;9.00;99.90;;;8.13;100.00;98048.53;5039310;28;20049;-68
2023/04/16 09:51:49;;;;;;;11.75;8.30;;;9.00;99.90;;;8.23;100.00;98054.31;5037791;28;20136;-69
2023/04/16 09:54:18;;;;;;;13.02;9.13;;;9.10;99.90;;;8.09;100.00;98058.97;5041056;28;20060;-68
2023/04/16 09:56:46;;;;;;;13.32;8.73;;;9.10;99.90;;;8.15;100.00;98054.50;5039754;28;20421;-69
2023/04/16 09:59:21;;;;;;;13.35;9.60;;;9.10;99.90;;;8.17;100.00;98057.91;5037169;28;20081;-70
2023/04/16 10:01:49;;;;;;;13.38;10.07;;;9.00;99.90;;;8.29;100.00;98066.25;5038759;28;20049;-70
2023/04/16 10:04:17;;;;;;;14.13;10.18;;;9.10;99.90;;;8.34;100.00;98065.22;5040163;28;20041;-70
2023/04/16 10:06:47;;;;;;;13.85;8.98;;;9.10;99.90;;;8.57;100.00;98069.81;5039561;28;20108;-69
2023/04/16 10:09:14;;;;;;;11.35;9.07;;;9.20;99.90;;;8.45;100.00;98070.16;5037638;28;20084;-70
2023/04/16 10:11:41;;;;;;;13.25;8.70;;;9.30;99.90;;;8.64;100.00;98072.25;5040091;28;20044;-70
2023/04/16 10:14:08;;;;;;;11.93;8.93;;;9.30;99.90;;;8.54;100.00;98072.50;5037008;28;20131;-70
2023/04/16 10:16:38;;;;;;;13.90;9.32;;;9.20;99.90;;;8.45;100.00;98071.91;5036240;28;20145;-70
2023/04/16 10:19:07;;;;;;;13.63;8.80;;;9.20;99.90;;;8.26;100.00;98082.69;5039535;28;20159;-70
2023/04/16 10:21:34;;;;;;;12.55;8.80;;;9.20;99.90;;;8.24;100.00;98083.63;5022670;28;20053;-69